Terminal Aerodrome Forecast
Issued by NWS

Home | Current Version | Previous Version | Text Only | Print | Product List | Glossary On
Versions: 1 2 3 4 5 6 7 8 9 10 11 12 13 14 15 16 17 18 19 20
000
FTUS46 KSEW 091638 AAB
TAFCLM
TAF AMD
KCLM 091638Z 0917/1012 VRB03KT 5SM -SHSN BKN020 OVC035
      TEMPO 0917/0920 3SM -SN OVC018
     FM092000 VRB03KT 5SM -RA BR SCT007 BKN015 OVC030
     FM100900 25005KT P6SM FEW011 BKN022 OVC040 PROB30 1009/1012
      -SHRA=

USA.gov is the U.S. government's official web portal to all federal, state and local government web resources and services.